FAGM

Rand Airport

Johannesburg, South Africa
METAR FAGM 200600Z 11007KT 9999 BKN010 20/17 Q1023
Observed Flight Rules
Feb-20 @ 06:00 UTC (11 hours ago) Marginal Visual Flight Rules
Wind Visibility Clouds
110° at 7 knots 10,000+ meters
  • Broken at 1,000' AGL
Temperatures Readings
Current 20°C / 68°F
Dewpoint 17°C / 63°F
Humidity 83%
Altimeter 30.21" Hg
Pressure 1023 hPa
Elevation 1672
METAR FAGM 200600Z 11007KT 9999 BKN010 20/17 Q1023
Observed Flight Rules
Feb-20 @ 06:00 UTC
(11 hours ago)
MVFR
Wind Visibility
110° at 7 knots 10,000+ meters
Clouds
  • Broken at 1,000' AGL
Temperature Dewpoint
20°C / 68°F 17°C / 63°F
Humidity Altimeter Pressure
83% 30.21" Hg 1023 hPa